sensor_id;sensor_type;location;lat;lon;timestamp;P1;durP1;ratioP1;P2;durP2;ratioP2
17606;SDS011;69222;52.242;20.980;2023-06-26T00:00:43;8.20;;;5.35;;
17606;SDS011;69222;52.242;20.980;2023-06-26T00:03:11;8.63;;;5.65;;
17606;SDS011;69222;52.242;20.980;2023-06-26T00:05:41;7.60;;;5.63;;
17606;SDS011;69222;52.242;20.980;2023-06-26T00:08:09;6.35;;;5.60;;
17606;SDS011;69222;52.242;20.980;2023-06-26T00:10:37;8.68;;;6.13;;
17606;SDS011;69222;52.242;20.980;2023-06-26T00:13:07;8.07;;;5.93;;
17606;SDS011;69222;52.242;20.980;2023-06-26T00:15:38;6.53;;;5.82;;
17606;SDS011;69222;52.242;20.980;2023-06-26T00:18:07;8.70;;;6.03;;
17606;SDS011;69222;52.242;20.980;2023-06-26T00:20:34;7.78;;;6.05;;
17606;SDS011;69222;52.242;20.980;2023-06-26T00:23:03;9.05;;;6.15;;
17606;SDS011;69222;52.242;20.980;2023-06-26T00:25:33;9.63;;;6.50;;
17606;SDS011;69222;52.242;20.980;2023-06-26T00:28:02;8.18;;;6.65;;
17606;SDS011;69222;52.242;20.980;2023-06-26T00:30:31;8.52;;;6.82;;
17606;SDS011;69222;52.242;20.980;2023-06-26T00:32:59;10.75;;;5.75;;
17606;SDS011;69222;52.242;20.980;2023-06-26T00:35:28;8.27;;;6.63;;
17606;SDS011;69222;52.242;20.980;2023-06-26T00:37:56;8.10;;;6.38;;
17606;SDS011;69222;52.242;20.980;2023-06-26T00:40:24;10.90;;;5.93;;
17606;SDS011;69222;52.242;20.980;2023-06-26T00:42:54;7.85;;;6.50;;
17606;SDS011;69222;52.242;20.980;2023-06-26T00:45:22;8.02;;;6.35;;
17606;SDS011;69222;52.242;20.980;2023-06-26T00:48:09;8.65;;;7.15;;
17606;SDS011;69222;52.242;20.980;2023-06-26T00:50:38;8.77;;;6.32;;
17606;SDS011;69222;52.242;20.980;2023-06-26T00:53:08;8.18;;;6.45;;
17606;SDS011;69222;52.242;20.980;2023-06-26T00:55:37;8.27;;;6.25;;
17606;SDS011;69222;52.242;20.980;2023-06-26T00:58:05;7.63;;;6.35;;
17606;SDS011;69222;52.242;20.980;2023-06-26T01:00:33;8.65;;;6.65;;
17606;SDS011;69222;52.242;20.980;2023-06-26T01:03:02;9.60;;;6.82;;
17606;SDS011;69222;52.242;20.980;2023-06-26T01:05:31;6.32;;;5.72;;
17606;SDS011;69222;52.242;20.980;2023-06-26T01:07:59;9.27;;;6.45;;
17606;SDS011;69222;52.242;20.980;2023-06-26T01:10:27;6.63;;;6.00;;
17606;SDS011;69222;52.242;20.980;2023-06-26T01:12:56;7.53;;;6.47;;
17606;SDS011;69222;52.242;20.980;2023-06-26T01:15:25;7.70;;;6.90;;
17606;SDS011;69222;52.242;20.980;2023-06-26T01:17:53;6.53;;;5.88;;
17606;SDS011;69222;52.242;20.980;2023-06-26T01:20:31;8.18;;;6.53;;
17606;SDS011;69222;52.242;20.980;2023-06-26T01:23:06;7.10;;;6.20;;
17606;SDS011;69222;52.242;20.980;2023-06-26T01:25:50;8.60;;;6.20;;
17606;SDS011;69222;52.242;20.980;2023-06-26T01:28:28;8.85;;;6.60;;
17606;SDS011;69222;52.242;20.980;2023-06-26T01:30:57;10.30;;;6.60;;
17606;SDS011;69222;52.242;20.980;2023-06-26T01:33:26;8.15;;;6.85;;
17606;SDS011;69222;52.242;20.980;2023-06-26T01:35:54;9.15;;;7.32;;
17606;SDS011;69222;52.242;20.980;2023-06-26T01:38:22;8.30;;;7.25;;
17606;SDS011;69222;52.242;20.980;2023-06-26T01:40:50;10.70;;;7.10;;
17606;SDS011;69222;52.242;20.980;2023-06-26T01:43:20;12.55;;;7.70;;
17606;SDS011;69222;52.242;20.980;2023-06-26T01:45:58;10.70;;;6.95;;
17606;SDS011;69222;52.242;20.980;2023-06-26T01:48:31;8.10;;;6.53;;
17606;SDS011;69222;52.242;20.980;2023-06-26T01:51:02;8.15;;;6.80;;
17606;SDS011;69222;52.242;20.980;2023-06-26T01:53:32;8.13;;;7.15;;
17606;SDS011;69222;52.242;20.980;2023-06-26T01:56:05;10.80;;;7.03;;
17606;SDS011;69222;52.242;20.980;2023-06-26T01:58:36;10.25;;;7.13;;
17606;SDS011;69222;52.242;20.980;2023-06-26T02:01:09;7.50;;;6.65;;
17606;SDS011;69222;52.242;20.980;2023-06-26T02:03:38;8.65;;;7.05;;
17606;SDS011;69222;52.242;20.980;2023-06-26T02:06:06;10.32;;;7.93;;
17606;SDS011;69222;52.242;20.980;2023-06-26T02:08:35;9.10;;;7.13;;
17606;SDS011;69222;52.242;20.980;2023-06-26T02:11:03;8.65;;;6.55;;
17606;SDS011;69222;52.242;20.980;2023-06-26T02:13:31;10.27;;;6.63;;
17606;SDS011;69222;52.242;20.980;2023-06-26T02:15:59;8.82;;;6.45;;
17606;SDS011;69222;52.242;20.980;2023-06-26T02:18:28;8.60;;;7.05;;
17606;SDS011;69222;52.242;20.980;2023-06-26T02:20:56;10.10;;;7.35;;
17606;SDS011;69222;52.242;20.980;2023-06-26T02:23:24;9.02;;;6.93;;
17606;SDS011;69222;52.242;20.980;2023-06-26T02:25:52;7.72;;;6.35;;
17606;SDS011;69222;52.242;20.980;2023-06-26T02:28:20;7.68;;;6.60;;
17606;SDS011;69222;52.242;20.980;2023-06-26T02:30:48;10.80;;;7.03;;
17606;SDS011;69222;52.242;20.980;2023-06-26T02:33:16;7.47;;;6.30;;
17606;SDS011;69222;52.242;20.980;2023-06-26T02:35:45;10.35;;;6.88;;
17606;SDS011;69222;52.242;20.980;2023-06-26T02:38:13;12.98;;;7.55;;
17606;SDS011;69222;52.242;20.980;2023-06-26T02:40:41;12.48;;;7.30;;
17606;SDS011;69222;52.242;20.980;2023-06-26T02:43:09;10.43;;;6.82;;
17606;SDS011;69222;52.242;20.980;2023-06-26T02:45:37;10.38;;;7.25;;
17606;SDS011;69222;52.242;20.980;2023-06-26T02:48:05;11.30;;;7.57;;
17606;SDS011;69222;52.242;20.980;2023-06-26T02:50:33;9.30;;;6.47;;
17606;SDS011;69222;52.242;20.980;2023-06-26T02:53:02;10.40;;;6.90;;
17606;SDS011;69222;52.242;20.980;2023-06-26T02:55:30;10.00;;;6.90;;
17606;SDS011;69222;52.242;20.980;2023-06-26T02:57:58;8.88;;;6.13;;
17606;SDS011;69222;52.242;20.980;2023-06-26T03:00:26;11.45;;;6.53;;
17606;SDS011;69222;52.242;20.980;2023-06-26T03:02:56;8.48;;;6.97;;
17606;SDS011;69222;52.242;20.980;2023-06-26T03:05:24;7.45;;;6.32;;
17606;SDS011;69222;52.242;20.980;2023-06-26T03:07:52;7.28;;;6.57;;
17606;SDS011;69222;52.242;20.980;2023-06-26T03:10:22;7.32;;;5.95;;
17606;SDS011;69222;52.242;20.980;2023-06-26T03:12:49;8.73;;;6.13;;
17606;SDS011;69222;52.242;20.980;2023-06-26T03:15:17;8.45;;;6.25;;
17606;SDS011;69222;52.242;20.980;2023-06-26T03:17:46;7.80;;;6.28;;
17606;SDS011;69222;52.242;20.980;2023-06-26T03:20:14;7.85;;;6.40;;
17606;SDS011;69222;52.242;20.980;2023-06-26T03:22:43;8.57;;;6.07;;
17606;SDS011;69222;52.242;20.980;2023-06-26T03:25:10;7.28;;;6.32;;
17606;SDS011;69222;52.242;20.980;2023-06-26T03:27:40;8.55;;;6.63;;
17606;SDS011;69222;52.242;20.980;2023-06-26T03:30:08;7.47;;;6.70;;
17606;SDS011;69222;52.242;20.980;2023-06-26T03:32:37;7.43;;;6.03;;
17606;SDS011;69222;52.242;20.980;2023-06-26T03:35:05;9.65;;;6.53;;
17606;SDS011;69222;52.242;20.980;2023-06-26T03:37:34;8.07;;;6.43;;
17606;SDS011;69222;52.242;20.980;2023-06-26T03:40:02;9.02;;;7.00;;
17606;SDS011;69222;52.242;20.980;2023-06-26T03:42:31;11.35;;;7.30;;
17606;SDS011;69222;52.242;20.980;2023-06-26T03:45:01;8.93;;;6.28;;
17606;SDS011;69222;52.242;20.980;2023-06-26T03:47:29;8.80;;;7.50;;
17606;SDS011;69222;52.242;20.980;2023-06-26T03:49:57;9.80;;;6.95;;
17606;SDS011;69222;52.242;20.980;2023-06-26T03:52:25;9.57;;;7.30;;
17606;SDS011;69222;52.242;20.980;2023-06-26T03:54:53;9.02;;;7.45;;
17606;SDS011;69222;52.242;20.980;2023-06-26T03:57:20;8.90;;;7.40;;
17606;SDS011;69222;52.242;20.980;2023-06-26T03:59:48;9.35;;;7.53;;
17606;SDS011;69222;52.242;20.980;2023-06-26T04:02:18;11.73;;;8.20;;
17606;SDS011;69222;52.242;20.980;2023-06-26T04:04:46;10.10;;;7.63;;
17606;SDS011;69222;52.242;20.980;2023-06-26T04:07:14;8.80;;;7.60;;
17606;SDS011;69222;52.242;20.980;2023-06-26T04:09:42;8.85;;;7.45;;
17606;SDS011;69222;52.242;20.980;2023-06-26T04:12:10;11.40;;;8.32;;
17606;SDS011;69222;52.242;20.980;2023-06-26T04:14:38;9.57;;;7.30;;
17606;SDS011;69222;52.242;20.980;2023-06-26T04:17:06;9.13;;;7.70;;
17606;SDS011;69222;52.242;20.980;2023-06-26T04:19:35;11.95;;;7.68;;
17606;SDS011;69222;52.242;20.980;2023-06-26T04:22:03;10.43;;;7.22;;
17606;SDS011;69222;52.242;20.980;2023-06-26T04:24:31;9.25;;;7.35;;
17606;SDS011;69222;52.242;20.980;2023-06-26T04:26:59;11.65;;;6.85;;
17606;SDS011;69222;52.242;20.980;2023-06-26T04:29:27;10.02;;;7.93;;
17606;SDS011;69222;52.242;20.980;2023-06-26T04:31:55;11.25;;;7.20;;
17606;SDS011;69222;52.242;20.980;2023-06-26T04:34:25;11.75;;;7.22;;
17606;SDS011;69222;52.242;20.980;2023-06-26T04:36:55;9.18;;;7.35;;
17606;SDS011;69222;52.242;20.980;2023-06-26T04:39:23;9.13;;;7.00;;
17606;SDS011;69222;52.242;20.980;2023-06-26T04:41:51;8.07;;;6.97;;
17606;SDS011;69222;52.242;20.980;2023-06-26T04:44:19;11.35;;;7.05;;
17606;SDS011;69222;52.242;20.980;2023-06-26T04:46:47;11.60;;;6.95;;
17606;SDS011;69222;52.242;20.980;2023-06-26T04:49:18;9.73;;;6.80;;
17606;SDS011;69222;52.242;20.980;2023-06-26T04:51:46;12.45;;;7.03;;
17606;SDS011;69222;52.242;20.980;2023-06-26T04:54:16;8.88;;;6.80;;
17606;SDS011;69222;52.242;20.980;2023-06-26T04:56:44;9.52;;;6.80;;
17606;SDS011;69222;52.242;20.980;2023-06-26T04:59:13;8.80;;;6.38;;
17606;SDS011;69222;52.242;20.980;2023-06-26T05:01:41;8.63;;;6.95;;
17606;SDS011;69222;52.242;20.980;2023-06-26T05:04:15;9.73;;;7.22;;
17606;SDS011;69222;52.242;20.980;2023-06-26T05:06:43;8.68;;;7.10;;
17606;SDS011;69222;52.242;20.980;2023-06-26T05:09:11;10.82;;;6.93;;
17606;SDS011;69222;52.242;20.980;2023-06-26T05:11:41;9.80;;;7.18;;
17606;SDS011;69222;52.242;20.980;2023-06-26T05:14:09;8.98;;;6.90;;
17606;SDS011;69222;52.242;20.980;2023-06-26T05:16:37;11.32;;;7.10;;
17606;SDS011;69222;52.242;20.980;2023-06-26T05:19:05;10.43;;;7.10;;
17606;SDS011;69222;52.242;20.980;2023-06-26T05:21:33;8.10;;;6.65;;
17606;SDS011;69222;52.242;20.980;2023-06-26T05:24:02;9.63;;;6.43;;
17606;SDS011;69222;52.242;20.980;2023-06-26T05:26:31;8.15;;;6.25;;
17606;SDS011;69222;52.242;20.980;2023-06-26T05:29:01;12.60;;;6.93;;
17606;SDS011;69222;52.242;20.980;2023-06-26T05:31:30;9.30;;;6.45;;
17606;SDS011;69222;52.242;20.980;2023-06-26T05:34:00;9.82;;;6.93;;
17606;SDS011;69222;52.242;20.980;2023-06-26T05:36:30;9.25;;;6.35;;
17606;SDS011;69222;52.242;20.980;2023-06-26T05:39:01;6.80;;;5.97;;
17606;SDS011;69222;52.242;20.980;2023-06-26T05:41:30;8.75;;;6.10;;
17606;SDS011;69222;52.242;20.980;2023-06-26T05:43:58;6.35;;;5.75;;
17606;SDS011;69222;52.242;20.980;2023-06-26T05:46:27;9.75;;;5.45;;
17606;SDS011;69222;52.242;20.980;2023-06-26T05:48:55;6.57;;;5.95;;
17606;SDS011;69222;52.242;20.980;2023-06-26T05:51:24;7.22;;;5.70;;
17606;SDS011;69222;52.242;20.980;2023-06-26T05:53:52;8.18;;;6.60;;
17606;SDS011;69222;52.242;20.980;2023-06-26T05:56:21;6.35;;;5.45;;
17606;SDS011;69222;52.242;20.980;2023-06-26T05:58:49;7.10;;;5.50;;
17606;SDS011;69222;52.242;20.980;2023-06-26T06:01:18;6.38;;;5.78;;
17606;SDS011;69222;52.242;20.980;2023-06-26T06:03:47;7.30;;;5.05;;
17606;SDS011;69222;52.242;20.980;2023-06-26T06:06:16;6.38;;;4.65;;
17606;SDS011;69222;52.242;20.980;2023-06-26T06:08:44;6.85;;;4.93;;
17606;SDS011;69222;52.242;20.980;2023-06-26T06:11:14;7.20;;;4.70;;
17606;SDS011;69222;52.242;20.980;2023-06-26T06:13:42;6.40;;;3.90;;
17606;SDS011;69222;52.242;20.980;2023-06-26T06:16:10;5.25;;;4.00;;
17606;SDS011;69222;52.242;20.980;2023-06-26T06:18:38;4.80;;;4.30;;
17606;SDS011;69222;52.242;20.980;2023-06-26T06:21:07;4.97;;;4.53;;
17606;SDS011;69222;52.242;20.980;2023-06-26T06:23:36;6.03;;;4.25;;
17606;SDS011;69222;52.242;20.980;2023-06-26T06:26:04;5.28;;;4.78;;
17606;SDS011;69222;52.242;20.980;2023-06-26T06:28:32;11.88;;;6.22;;
17606;SDS011;69222;52.242;20.980;2023-06-26T06:31:00;6.97;;;4.05;;
17606;SDS011;69222;52.242;20.980;2023-06-26T06:33:29;8.68;;;4.60;;
17606;SDS011;69222;52.242;20.980;2023-06-26T06:35:57;9.48;;;4.70;;
17606;SDS011;69222;52.242;20.980;2023-06-26T06:38:26;6.47;;;4.15;;
17606;SDS011;69222;52.242;20.980;2023-06-26T06:40:54;5.93;;;3.58;;
17606;SDS011;69222;52.242;20.980;2023-06-26T06:43:22;7.22;;;3.40;;
17606;SDS011;69222;52.242;20.980;2023-06-26T06:45:50;5.10;;;3.70;;
17606;SDS011;69222;52.242;20.980;2023-06-26T06:48:18;3.15;;;2.75;;
17606;SDS011;69222;52.242;20.980;2023-06-26T06:50:46;5.03;;;3.40;;
17606;SDS011;69222;52.242;20.980;2023-06-26T06:53:14;4.95;;;4.03;;
17606;SDS011;69222;52.242;20.980;2023-06-26T06:55:43;3.35;;;3.05;;
17606;SDS011;69222;52.242;20.980;2023-06-26T06:58:11;4.07;;;3.70;;
17606;SDS011;69222;52.242;20.980;2023-06-26T07:00:39;5.05;;;3.50;;
17606;SDS011;69222;52.242;20.980;2023-06-26T07:03:07;4.95;;;3.45;;
17606;SDS011;69222;52.242;20.980;2023-06-26T07:05:37;3.38;;;3.08;;
17606;SDS011;69222;52.242;20.980;2023-06-26T07:08:05;3.42;;;2.92;;
17606;SDS011;69222;52.242;20.980;2023-06-26T07:10:33;3.65;;;3.35;;
17606;SDS011;69222;52.242;20.980;2023-06-26T07:13:03;4.50;;;3.45;;
17606;SDS011;69222;52.242;20.980;2023-06-26T07:15:31;3.35;;;3.05;;
17606;SDS011;69222;52.242;20.980;2023-06-26T07:17:59;3.80;;;2.70;;
17606;SDS011;69222;52.242;20.980;2023-06-26T07:20:27;3.33;;;3.00;;
17606;SDS011;69222;52.242;20.980;2023-06-26T07:22:55;6.25;;;3.05;;
17606;SDS011;69222;52.242;20.980;2023-06-26T07:25:23;3.70;;;3.38;;
17606;SDS011;69222;52.242;20.980;2023-06-26T07:27:51;5.45;;;3.50;;
17606;SDS011;69222;52.242;20.980;2023-06-26T07:30:20;3.85;;;3.03;;
17606;SDS011;69222;52.242;20.980;2023-06-26T07:32:49;3.28;;;3.03;;
17606;SDS011;69222;52.242;20.980;2023-06-26T07:35:17;3.70;;;3.40;;
17606;SDS011;69222;52.242;20.980;2023-06-26T07:37:45;4.53;;;3.50;;
17606;SDS011;69222;52.242;20.980;2023-06-26T07:40:13;3.10;;;2.70;;
17606;SDS011;69222;52.242;20.980;2023-06-26T07:42:44;3.10;;;2.90;;
17606;SDS011;69222;52.242;20.980;2023-06-26T07:45:12;3.75;;;2.67;;
17606;SDS011;69222;52.242;20.980;2023-06-26T07:47:42;4.15;;;3.75;;
17606;SDS011;69222;52.242;20.980;2023-06-26T07:50:10;9.55;;;5.65;;
17606;SDS011;69222;52.242;20.980;2023-06-26T07:52:38;6.95;;;4.80;;
17606;SDS011;69222;52.242;20.980;2023-06-26T07:55:06;10.18;;;6.15;;
17606;SDS011;69222;52.242;20.980;2023-06-26T07:57:34;7.30;;;4.53;;
17606;SDS011;69222;52.242;20.980;2023-06-26T08:00:03;12.82;;;7.93;;
17606;SDS011;69222;52.242;20.980;2023-06-26T08:02:33;7.65;;;4.93;;
17606;SDS011;69222;52.242;20.980;2023-06-26T08:05:02;15.68;;;7.68;;
17606;SDS011;69222;52.242;20.980;2023-06-26T08:07:31;20.00;;;8.63;;
17606;SDS011;69222;52.242;20.980;2023-06-26T08:09:59;7.80;;;5.03;;
17606;SDS011;69222;52.242;20.980;2023-06-26T08:12:27;11.60;;;7.63;;
17606;SDS011;69222;52.242;20.980;2023-06-26T08:14:55;9.98;;;5.97;;
17606;SDS011;69222;52.242;20.980;2023-06-26T08:17:23;21.15;;;9.68;;
17606;SDS011;69222;52.242;20.980;2023-06-26T08:19:53;15.85;;;6.72;;
17606;SDS011;69222;52.242;20.980;2023-06-26T08:22:23;6.50;;;4.07;;
17606;SDS011;69222;52.242;20.980;2023-06-26T08:24:51;5.43;;;4.43;;
17606;SDS011;69222;52.242;20.980;2023-06-26T08:27:19;4.30;;;3.90;;
17606;SDS011;69222;52.242;20.980;2023-06-26T08:29:46;12.48;;;8.07;;
17606;SDS011;69222;52.242;20.980;2023-06-26T08:32:14;8.95;;;4.80;;
17606;SDS011;69222;52.242;20.980;2023-06-26T08:34:42;11.50;;;5.95;;
17606;SDS011;69222;52.242;20.980;2023-06-26T08:37:14;7.47;;;4.45;;
17606;SDS011;69222;52.242;20.980;2023-06-26T08:39:43;7.47;;;4.70;;
17606;SDS011;69222;52.242;20.980;2023-06-26T08:42:11;6.43;;;3.85;;
17606;SDS011;69222;52.242;20.980;2023-06-26T08:44:39;6.35;;;3.70;;
17606;SDS011;69222;52.242;20.980;2023-06-26T08:47:22;10.73;;;5.85;;
17606;SDS011;69222;52.242;20.980;2023-06-26T08:49:51;4.85;;;3.80;;
17606;SDS011;69222;52.242;20.980;2023-06-26T08:52:28;4.22;;;3.83;;
17606;SDS011;69222;52.242;20.980;2023-06-26T08:54:59;4.18;;;3.40;;
17606;SDS011;69222;52.242;20.980;2023-06-26T08:57:30;3.22;;;2.92;;
17606;SDS011;69222;52.242;20.980;2023-06-26T08:59:59;5.13;;;3.47;;
17606;SDS011;69222;52.242;20.980;2023-06-26T09:02:28;6.40;;;3.70;;
17606;SDS011;69222;52.242;20.980;2023-06-26T09:04:56;4.15;;;3.50;;
17606;SDS011;69222;52.242;20.980;2023-06-26T09:07:24;4.13;;;3.72;;
17606;SDS011;69222;52.242;20.980;2023-06-26T09:09:52;7.07;;;3.28;;
17606;SDS011;69222;52.242;20.980;2023-06-26T09:12:22;3.95;;;3.30;;
17606;SDS011;69222;52.242;20.980;2023-06-26T09:14:50;5.55;;;3.42;;
17606;SDS011;69222;52.242;20.980;2023-06-26T09:17:18;3.20;;;2.90;;
17606;SDS011;69222;52.242;20.980;2023-06-26T09:19:46;3.35;;;3.05;;
17606;SDS011;69222;52.242;20.980;2023-06-26T09:22:15;3.75;;;3.25;;
17606;SDS011;69222;52.242;20.980;2023-06-26T09:24:44;5.45;;;3.97;;
17606;SDS011;69222;52.242;20.980;2023-06-26T09:27:13;4.25;;;3.08;;
17606;SDS011;69222;52.242;20.980;2023-06-26T09:29:42;4.43;;;3.20;;
17606;SDS011;69222;52.242;20.980;2023-06-26T09:32:13;4.60;;;3.42;;
17606;SDS011;69222;52.242;20.980;2023-06-26T09:34:42;4.75;;;3.67;;
17606;SDS011;69222;52.242;20.980;2023-06-26T09:37:11;3.60;;;3.28;;
17606;SDS011;69222;52.242;20.980;2023-06-26T09:39:39;5.50;;;2.83;;
17606;SDS011;69222;52.242;20.980;2023-06-26T09:42:07;3.45;;;3.17;;
17606;SDS011;69222;52.242;20.980;2023-06-26T09:44:36;4.10;;;3.70;;
17606;SDS011;69222;52.242;20.980;2023-06-26T09:47:05;6.25;;;3.20;;
17606;SDS011;69222;52.242;20.980;2023-06-26T09:49:34;4.10;;;3.47;;
17606;SDS011;69222;52.242;20.980;2023-06-26T09:52:02;4.85;;;3.92;;
17606;SDS011;69222;52.242;20.980;2023-06-26T09:54:31;3.40;;;3.10;;
17606;SDS011;69222;52.242;20.980;2023-06-26T09:57:06;4.13;;;2.90;;
17606;SDS011;69222;52.242;20.980;2023-06-26T09:59:35;3.53;;;2.70;;
17606;SDS011;69222;52.242;20.980;2023-06-26T10:02:03;4.32;;;2.97;;
17606;SDS011;69222;52.242;20.980;2023-06-26T10:04:33;4.28;;;3.30;;
17606;SDS011;69222;52.242;20.980;2023-06-26T10:07:04;20.85;;;7.38;;
17606;SDS011;69222;52.242;20.980;2023-06-26T10:09:34;7.97;;;3.90;;
17606;SDS011;69222;52.242;20.980;2023-06-26T10:12:06;5.63;;;3.50;;
17606;SDS011;69222;52.242;20.980;2023-06-26T10:14:38;3.45;;;3.05;;
17606;SDS011;69222;52.242;20.980;2023-06-26T10:17:13;3.15;;;2.85;;
17606;SDS011;69222;52.242;20.980;2023-06-26T10:19:45;4.60;;;3.17;;
17606;SDS011;69222;52.242;20.980;2023-06-26T10:22:15;3.25;;;2.95;;
17606;SDS011;69222;52.242;20.980;2023-06-26T10:24:45;3.33;;;2.28;;
17606;SDS011;69222;52.242;20.980;2023-06-26T10:27:15;2.63;;;2.30;;
17606;SDS011;69222;52.242;20.980;2023-06-26T10:29:44;3.17;;;2.80;;
17606;SDS011;69222;52.242;20.980;2023-06-26T10:32:16;3.63;;;2.78;;
17606;SDS011;69222;52.242;20.980;2023-06-26T10:34:47;3.83;;;2.60;;
17606;SDS011;69222;52.242;20.980;2023-06-26T10:37:15;3.35;;;2.80;;
17606;SDS011;69222;52.242;20.980;2023-06-26T10:39:47;3.08;;;2.70;;
17606;SDS011;69222;52.242;20.980;2023-06-26T10:42:16;3.38;;;3.03;;
17606;SDS011;69222;52.242;20.980;2023-06-26T10:44:45;4.05;;;2.97;;
17606;SDS011;69222;52.242;20.980;2023-06-26T10:47:28;5.43;;;2.75;;
17606;SDS011;69222;52.242;20.980;2023-06-26T10:55:42;3.95;;;3.55;;
17606;SDS011;69222;52.242;20.980;2023-06-26T11:01:19;3.20;;;2.90;;
17606;SDS011;69222;52.242;20.980;2023-06-26T11:03:50;3.13;;;2.83;;
17606;SDS011;69222;52.242;20.980;2023-06-26T11:06:31;3.05;;;2.70;;
17606;SDS011;69222;52.242;20.980;2023-06-26T11:09:00;3.33;;;2.92;;
17606;SDS011;69222;52.242;20.980;2023-06-26T11:14:26;3.88;;;3.58;;
17606;SDS011;69222;52.242;20.980;2023-06-26T11:16:57;3.40;;;3.10;;
17606;SDS011;69222;52.242;20.980;2023-06-26T11:19:26;3.00;;;2.72;;
17606;SDS011;69222;52.242;20.980;2023-06-26T11:22:01;5.60;;;2.95;;
17606;SDS011;69222;52.242;20.980;2023-06-26T11:24:31;4.78;;;3.03;;
17606;SDS011;69222;52.242;20.980;2023-06-26T11:27:01;4.60;;;3.00;;
17606;SDS011;69222;52.242;20.980;2023-06-26T11:29:30;4.50;;;3.22;;
17606;SDS011;69222;52.242;20.980;2023-06-26T11:32:01;4.63;;;2.60;;
17606;SDS011;69222;52.242;20.980;2023-06-26T11:34:32;3.78;;;2.70;;
17606;SDS011;69222;52.242;20.980;2023-06-26T11:37:02;3.15;;;2.95;;
17606;SDS011;69222;52.242;20.980;2023-06-26T11:39:31;2.65;;;2.45;;
17606;SDS011;69222;52.242;20.980;2023-06-26T11:41:59;2.92;;;2.72;;
17606;SDS011;69222;52.242;20.980;2023-06-26T11:44:31;3.25;;;2.50;;
17606;SDS011;69222;52.242;20.980;2023-06-26T11:46:59;5.43;;;2.75;;
17606;SDS011;69222;52.242;20.980;2023-06-26T11:49:27;4.07;;;3.10;;
17606;SDS011;69222;52.242;20.980;2023-06-26T11:51:56;5.35;;;2.70;;
17606;SDS011;69222;52.242;20.980;2023-06-26T11:54:26;3.25;;;2.30;;
17606;SDS011;69222;52.242;20.980;2023-06-26T11:56:55;3.05;;;2.42;;
17606;SDS011;69222;52.242;20.980;2023-06-26T11:59:32;2.35;;;2.15;;
17606;SDS011;69222;52.242;20.980;2023-06-26T12:02:04;2.58;;;2.38;;
17606;SDS011;69222;52.242;20.980;2023-06-26T12:04:33;4.25;;;2.55;;
17606;SDS011;69222;52.242;20.980;2023-06-26T12:07:03;3.40;;;2.60;;
17606;SDS011;69222;52.242;20.980;2023-06-26T12:09:39;2.88;;;2.58;;
17606;SDS011;69222;52.242;20.980;2023-06-26T12:12:08;2.72;;;2.53;;
17606;SDS011;69222;52.242;20.980;2023-06-26T12:14:37;2.83;;;2.47;;
17606;SDS011;69222;52.242;20.980;2023-06-26T12:17:09;5.93;;;2.47;;
17606;SDS011;69222;52.242;20.980;2023-06-26T12:19:38;3.60;;;2.70;;
17606;SDS011;69222;52.242;20.980;2023-06-26T12:22:07;3.10;;;2.78;;
17606;SDS011;69222;52.242;20.980;2023-06-26T12:24:36;2.70;;;2.50;;
17606;SDS011;69222;52.242;20.980;2023-06-26T12:27:10;3.03;;;2.53;;
17606;SDS011;69222;52.242;20.980;2023-06-26T12:29:39;3.05;;;2.67;;
17606;SDS011;69222;52.242;20.980;2023-06-26T12:32:08;6.32;;;2.60;;
17606;SDS011;69222;52.242;20.980;2023-06-26T12:34:38;3.40;;;3.03;;
17606;SDS011;69222;52.242;20.980;2023-06-26T12:37:07;3.92;;;2.25;;
17606;SDS011;69222;52.242;20.980;2023-06-26T12:39:48;3.00;;;2.55;;
17606;SDS011;69222;52.242;20.980;2023-06-26T12:42:17;3.80;;;2.58;;
17606;SDS011;69222;52.242;20.980;2023-06-26T12:44:46;3.85;;;2.90;;
17606;SDS011;69222;52.242;20.980;2023-06-26T12:47:15;3.10;;;2.80;;
17606;SDS011;69222;52.242;20.980;2023-06-26T12:49:44;3.00;;;2.67;;
17606;SDS011;69222;52.242;20.980;2023-06-26T12:52:14;2.90;;;2.60;;
17606;SDS011;69222;52.242;20.980;2023-06-26T12:54:43;3.50;;;2.60;;
17606;SDS011;69222;52.242;20.980;2023-06-26T12:57:14;4.32;;;2.83;;
17606;SDS011;69222;52.242;20.980;2023-06-26T12:59:42;3.22;;;2.80;;
17606;SDS011;69222;52.242;20.980;2023-06-26T13:02:10;2.85;;;2.65;;
17606;SDS011;69222;52.242;20.980;2023-06-26T13:04:40;4.32;;;2.97;;
17606;SDS011;69222;52.242;20.980;2023-06-26T13:07:11;2.83;;;2.45;;
17606;SDS011;69222;52.242;20.980;2023-06-26T13:09:39;3.13;;;2.88;;
17606;SDS011;69222;52.242;20.980;2023-06-26T13:12:08;4.95;;;3.10;;
17606;SDS011;69222;52.242;20.980;2023-06-26T13:14:37;3.17;;;2.67;;
17606;SDS011;69222;52.242;20.980;2023-06-26T13:17:05;3.95;;;3.00;;
17606;SDS011;69222;52.242;20.980;2023-06-26T13:19:35;2.80;;;2.60;;
17606;SDS011;69222;52.242;20.980;2023-06-26T13:22:03;2.65;;;2.45;;
17606;SDS011;69222;52.242;20.980;2023-06-26T13:24:32;3.05;;;2.85;;
17606;SDS011;69222;52.242;20.980;2023-06-26T13:27:00;2.55;;;2.35;;
17606;SDS011;69222;52.242;20.980;2023-06-26T13:29:28;3.10;;;2.78;;
17606;SDS011;69222;52.242;20.980;2023-06-26T13:31:58;2.67;;;2.45;;
17606;SDS011;69222;52.242;20.980;2023-06-26T13:34:27;5.07;;;3.40;;
17606;SDS011;69222;52.242;20.980;2023-06-26T13:36:56;5.00;;;2.78;;
17606;SDS011;69222;52.242;20.980;2023-06-26T13:39:26;2.88;;;2.65;;
17606;SDS011;69222;52.242;20.980;2023-06-26T13:41:54;3.45;;;2.67;;
17606;SDS011;69222;52.242;20.980;2023-06-26T13:44:23;3.33;;;2.95;;
17606;SDS011;69222;52.242;20.980;2023-06-26T13:47:08;3.85;;;2.92;;
17606;SDS011;69222;52.242;20.980;2023-06-26T13:49:37;2.60;;;2.40;;
17606;SDS011;69222;52.242;20.980;2023-06-26T13:52:06;3.00;;;2.70;;
17606;SDS011;69222;52.242;20.980;2023-06-26T13:54:35;4.28;;;2.58;;
17606;SDS011;69222;52.242;20.980;2023-06-26T13:57:03;2.70;;;2.50;;
17606;SDS011;69222;52.242;20.980;2023-06-26T13:59:32;4.50;;;2.58;;
17606;SDS011;69222;52.242;20.980;2023-06-26T14:02:01;2.97;;;2.67;;
17606;SDS011;69222;52.242;20.980;2023-06-26T14:04:30;4.10;;;3.08;;
17606;SDS011;69222;52.242;20.980;2023-06-26T14:06:58;4.97;;;3.17;;
17606;SDS011;69222;52.242;20.980;2023-06-26T14:09:26;2.55;;;2.35;;
17606;SDS011;69222;52.242;20.980;2023-06-26T14:11:54;3.45;;;2.60;;
17606;SDS011;69222;52.242;20.980;2023-06-26T14:14:23;2.90;;;2.58;;
17606;SDS011;69222;52.242;20.980;2023-06-26T14:16:51;3.92;;;2.92;;
17606;SDS011;69222;52.242;20.980;2023-06-26T14:19:19;3.00;;;2.70;;
17606;SDS011;69222;52.242;20.980;2023-06-26T14:21:48;3.13;;;2.83;;
17606;SDS011;69222;52.242;20.980;2023-06-26T14:24:16;3.65;;;2.70;;
17606;SDS011;69222;52.242;20.980;2023-06-26T14:26:45;3.00;;;2.70;;
17606;SDS011;69222;52.242;20.980;2023-06-26T14:29:13;3.50;;;2.53;;
17606;SDS011;69222;52.242;20.980;2023-06-26T14:31:43;4.35;;;2.90;;
17606;SDS011;69222;52.242;20.980;2023-06-26T14:34:15;4.10;;;2.35;;
17606;SDS011;69222;52.242;20.980;2023-06-26T14:36:43;3.40;;;2.65;;
17606;SDS011;69222;52.242;20.980;2023-06-26T14:39:13;4.43;;;2.97;;
17606;SDS011;69222;52.242;20.980;2023-06-26T14:41:41;3.83;;;2.72;;
17606;SDS011;69222;52.242;20.980;2023-06-26T14:44:10;3.58;;;2.75;;
17606;SDS011;69222;52.242;20.980;2023-06-26T14:46:38;3.03;;;2.50;;
17606;SDS011;69222;52.242;20.980;2023-06-26T14:49:07;5.07;;;2.70;;
17606;SDS011;69222;52.242;20.980;2023-06-26T14:51:35;3.47;;;2.50;;
17606;SDS011;69222;52.242;20.980;2023-06-26T14:54:04;2.75;;;2.53;;
17606;SDS011;69222;52.242;20.980;2023-06-26T14:56:33;2.88;;;2.53;;